Terminal Aerodrome Forecast
Issued by NWS Wakefield, VA

Home | Current Version | Previous Version | Text Only | Print | Product List | Glossary On
Versions: 1 2 3 4 5 6 7 8 9 10 11 12 13 14 15 16 17 18
129
FTUS41 KAKQ 241423 AAA
TAFRIC
TAF AMD
KRIC 241423Z 2414/2512 27012KT P6SM SCT040 SCT250
     FM242100 26008KT P6SM SCT250
     FM250800 33004KT P6SM SCT200=

USA.gov is the U.S. government's official web portal to all federal, state and local government web resources and services.